Time;durP1;ratioP1;P1;durP2;ratioP2;P2;SDS_P1;SDS_P2;PMS_P1;PMS_P2;Temp;Humidity;BMP_temperature;BMP_pressure;BME280_temperature;BME280_humidity;BME280_pressure;Samples;Min_cycle;Max_cycle;Signal;HPM_P1;HPM_P2
2022/05/12 00:01:06;;;;;;;;;;;;;;;12.24;40.77;98510.50;4796658;29;19963;-81
2022/05/12 00:03:31;;;;;;;;;;;;;;;12.22;41.27;98520.06;4805584;29;20040;-81
2022/05/12 00:05:57;;;;;;;;;;;;;;;12.10;41.84;98513.50;4807269;29;19924;-81
2022/05/12 00:08:23;;;;;;;;;;;;;;;12.02;42.20;98523.25;4792111;29;19921;-81
2022/05/12 00:10:48;;;;;;;;;;;;;;;12.03;42.23;98531.91;4790189;29;19921;-81
2022/05/12 00:13:14;;;;;;;;;;;;;;;11.98;42.23;98532.03;4797778;29;19928;-80
2022/05/12 00:15:40;;;;;;;;;;;;;;;11.97;41.38;98527.72;4791297;29;19928;-80
2022/05/12 00:18:06;;;;;;;;;;;;;;;12.07;41.54;98523.13;4787821;30;19917;-81
2022/05/12 00:20:33;;;;;;;;;;;;;;;12.23;40.73;98529.56;4785456;29;19928;-81
2022/05/12 00:23:13;;;;;;;;;;;;;;;12.27;40.92;98525.13;4776528;30;20004;-82
2022/05/12 00:25:39;;;;;;;;;;;;;;;12.16;41.48;98521.09;4800114;29;19982;-81
2022/05/12 00:28:04;;;;;;;;;;;;;;;12.02;42.14;98518.06;4806652;29;20401;-81
2022/05/12 00:30:30;;;;;;;;;;;;;;;11.93;42.27;98521.75;4778403;30;20006;-82
2022/05/12 00:32:55;;;;;;;;;;;;;;;11.87;42.13;98521.09;4788356;29;19976;-82
2022/05/12 00:35:21;;;;;;;;;;;;;;;11.86;42.31;98516.75;4787455;29;19922;-82
2022/05/12 00:37:46;;;;;;;;;;;;;;;11.93;42.58;98520.91;4796902;29;19917;-82
2022/05/12 00:40:12;;;;;;;;;;;;;;;11.93;42.73;98518.31;4803798;29;19928;-81
2022/05/12 00:42:51;;;;;;;;;;;;;;;11.86;42.38;98519.34;4780619;29;20374;-82
2022/05/12 00:45:16;;;;;;;;;;;;;;;11.79;43.12;98510.88;4795687;29;19947;-82
2022/05/12 00:47:42;;;;;;;;;;;;;;;11.70;43.62;98514.56;4792659;29;20007;-81
2022/05/12 00:50:07;;;;;;;;;;;;;;;11.67;43.39;98508.59;4791426;29;19964;-83
2022/05/12 00:52:33;;;;;;;;;;;;;;;11.65;43.03;98506.03;4788473;29;19990;-81
2022/05/12 00:55:04;;;;;;;;;;;;;;;11.70;43.77;98503.31;4798913;29;19949;-82
2022/05/12 00:57:38;;;;;;;;;;;;;;;11.66;43.64;98501.69;4785456;30;19925;-81
2022/05/12 01:00:12;;;;;;;;;;;;;;;11.63;43.43;98497.41;4786811;29;20016;-81
2022/05/12 01:02:38;;;;;;;;;;;;;;;11.58;43.39;98503.63;4791456;29;19928;-81
2022/05/12 01:05:04;;;;;;;;;;;;;;;11.52;44.17;98501.22;4771842;30;19929;-82
2022/05/12 01:07:29;;;;;;;;;;;;;;;11.57;44.39;98502.78;4785990;29;20008;-82
2022/05/12 01:09:55;;;;;;;;;;;;;;;11.61;43.67;98504.41;4796144;29;19924;-82
2022/05/12 01:12:21;;;;;;;;;;;;;;;11.58;43.22;98494.09;4786963;29;19922;-81
2022/05/12 01:14:46;;;;;;;;;;;;;;;11.53;43.59;98501.16;4799312;29;20016;-81
2022/05/12 01:17:12;;;;;;;;;;;;;;;11.53;43.93;98500.31;4771802;30;20396;-83
2022/05/12 01:19:39;;;;;;;;;;;;;;;11.52;43.85;98493.41;4787151;29;20369;-81
2022/05/12 01:22:05;;;;;;;;;;;;;;;11.44;44.15;98499.66;4797761;29;19948;-81
2022/05/12 01:24:32;;;;;;;;;;;;;;;11.48;44.14;98503.03;4800528;29;19928;-81
2022/05/12 01:27:18;;;;;;;;;;;;;;;11.48;44.14;98503.03;4787763;30;19929;-82
2022/05/12 01:29:43;;;;;;;;;;;;;;;11.60;43.94;98502.72;4800306;29;19928;-82
2022/05/12 01:32:08;;;;;;;;;;;;;;;11.59;44.48;98501.03;4775661;30;19917;-81
2022/05/12 01:34:34;;;;;;;;;;;;;;;11.56;44.13;98510.63;4800043;29;19932;-81
2022/05/12 01:36:59;;;;;;;;;;;;;;;11.39;44.93;98504.13;4793157;29;19970;-81
2022/05/12 01:39:25;;;;;;;;;;;;;;;11.39;44.46;98493.72;4795401;29;19929;-82
2022/05/12 01:41:50;;;;;;;;;;;;;;;11.45;44.11;98503.09;4758923;30;19917;-81
2022/05/12 01:44:16;;;;;;;;;;;;;;;11.43;44.13;98500.56;4786425;29;20555;-80
2022/05/12 01:46:41;;;;;;;;;;;;;;;11.40;44.88;98492.84;4788072;29;20421;-82
2022/05/12 01:49:07;;;;;;;;;;;;;;;11.42;45.32;98487.63;4787848;29;20009;-81
2022/05/12 01:51:35;;;;;;;;;;;;;;;11.40;44.86;98486.78;4787473;29;19986;-81
2022/05/12 01:54:00;;;;;;;;;;;;;;;11.39;45.48;98483.34;4787729;29;20011;-81
2022/05/12 01:56:26;;;;;;;;;;;;;;;11.37;45.41;98479.94;4788123;29;20007;-81
2022/05/12 01:58:51;;;;;;;;;;;;;;;11.36;45.64;98487.75;4785157;30;19986;-81
2022/05/12 02:01:17;;;;;;;;;;;;;;;11.34;45.39;98493.00;4787501;29;19924;-81
2022/05/12 02:03:42;;;;;;;;;;;;;;;11.31;45.90;98489.63;4781600;29;20297;-82
2022/05/12 02:06:08;;;;;;;;;;;;;;;11.24;45.26;98493.28;4786128;29;20016;-82
2022/05/12 02:08:34;;;;;;;;;;;;;;;11.21;45.72;98494.22;4787487;29;19929;-82
2022/05/12 02:10:59;;;;;;;;;;;;;;;11.24;45.43;98490.69;4786020;29;19925;-82
2022/05/12 02:13:27;;;;;;;;;;;;;;;11.29;45.28;98496.63;4786656;29;19928;-81
2022/05/12 02:15:53;;;;;;;;;;;;;;;11.28;45.59;98500.13;4783700;29;20404;-81
2022/05/12 02:18:20;;;;;;;;;;;;;;;11.25;45.49;98492.38;4772036;29;20464;-82
2022/05/12 02:20:45;;;;;;;;;;;;;;;11.28;45.11;98492.31;4789592;30;20001;-82
2022/05/12 02:23:11;;;;;;;;;;;;;;;11.26;45.93;98494.09;4804846;29;20627;-83
2022/05/12 02:25:37;;;;;;;;;;;;;;;11.34;45.44;98494.75;4807745;29;20024;-82
2022/05/12 02:28:03;;;;;;;;;;;;;;;11.35;45.58;98486.06;4807791;29;19921;-82
2022/05/12 02:30:29;;;;;;;;;;;;;;;11.34;45.57;98486.97;4807994;29;19940;-82
2022/05/12 02:32:55;;;;;;;;;;;;;;;11.37;45.49;98487.75;4808690;29;20389;-82
2022/05/12 02:35:20;;;;;;;;;;;;;;;11.34;45.55;98495.59;4776013;29;19917;-81
2022/05/12 02:37:46;;;;;;;;;;;;;;;11.35;45.65;98492.09;4767142;30;19921;-82
2022/05/12 02:40:12;;;;;;;;;;;;;;;11.40;46.24;98492.00;4791072;29;19960;-82
2022/05/12 02:42:38;;;;;;;;;;;;;;;11.50;46.14;98490.88;4791169;29;19921;-82
2022/05/12 02:45:04;;;;;;;;;;;;;;;11.55;45.86;98506.34;4789810;29;20297;-82
2022/05/12 02:47:30;;;;;;;;;;;;;;;11.55;45.83;98499.41;4798564;29;19957;-81
2022/05/12 02:49:55;;;;;;;;;;;;;;;11.48;45.78;98505.63;4795219;29;19956;-83
2022/05/12 02:52:21;;;;;;;;;;;;;;;11.48;45.74;98497.84;4789010;30;20401;-81
2022/05/12 02:54:46;;;;;;;;;;;;;;;11.44;46.29;98497.06;4789812;30;20413;-81
2022/05/12 02:57:12;;;;;;;;;;;;;;;11.47;46.28;98495.28;4803787;29;19921;-82
2022/05/12 02:59:37;;;;;;;;;;;;;;;11.50;45.98;98502.97;4799881;29;19924;-82
2022/05/12 03:02:03;;;;;;;;;;;;;;;11.51;46.46;98499.50;4791431;29;20325;-81
2022/05/12 03:04:28;;;;;;;;;;;;;;;11.49;46.32;98503.88;4801272;29;19978;-82
2022/05/12 03:06:54;;;;;;;;;;;;;;;11.58;46.45;98499.28;4769530;29;20032;-81
2022/05/12 03:09:19;;;;;;;;;;;;;;;11.65;46.21;98500.84;4789300;29;20353;-80
2022/05/12 03:11:45;;;;;;;;;;;;;;;11.62;45.91;98505.25;4789832;29;19922;-82
2022/05/12 03:14:10;;;;;;;;;;;;;;;11.64;46.93;98509.53;4803048;29;19924;-80
2022/05/12 03:16:36;;;;;;;;;;;;;;;11.65;46.84;98508.63;4778810;29;20019;-82
2022/05/12 03:19:02;;;;;;;;;;;;;;;11.68;46.76;98505.09;4802951;29;19923;-82
2022/05/12 03:21:27;;;;;;;;;;;;;;;11.71;47.02;98505.88;4794916;29;19960;-83
2022/05/12 03:23:53;;;;;;;;;;;;;;;11.71;46.96;98500.66;4789392;29;19921;-84
2022/05/12 03:26:19;;;;;;;;;;;;;;;11.69;46.78;98506.81;4776882;29;19988;-82
2022/05/12 03:28:44;;;;;;;;;;;;;;;11.65;47.58;98503.44;4799874;29;19922;-83
2022/05/12 03:31:10;;;;;;;;;;;;;;;11.71;46.69;98495.47;4775142;29;20015;-81
2022/05/12 03:33:35;;;;;;;;;;;;;;;11.75;47.19;98509.25;4798830;29;20362;-80
2022/05/12 03:36:01;;;;;;;;;;;;;;;11.75;47.90;98511.00;4795138;29;19921;-81
2022/05/12 03:38:26;;;;;;;;;;;;;;;11.73;47.87;98502.38;4801038;29;20010;-82
2022/05/12 03:40:52;;;;;;;;;;;;;;;11.81;48.09;98495.22;4799062;29;19928;-81
2022/05/12 03:46:02;;;;;;;;;;;;;;;11.91;47.98;98476.78;4789863;29;19921;-83
2022/05/12 03:48:28;;;;;;;;;;;;;;;11.97;47.70;98465.34;4803613;29;19927;-82
2022/05/12 03:50:53;;;;;;;;;;;;;;;12.04;48.11;98472.06;4796984;29;19922;-78
2022/05/12 03:53:18;;;;;;;;;;;;;;;12.10;47.85;98461.50;4788747;29;19926;-79
2022/05/12 03:55:44;;;;;;;;;;;;;;;12.14;47.87;98457.03;4796442;29;20418;-78
2022/05/12 03:58:10;;;;;;;;;;;;;;;12.17;47.74;98460.41;4795016;29;19921;-77
2022/05/12 04:00:35;;;;;;;;;;;;;;;12.24;47.67;98462.84;4798610;29;19982;-77
2022/05/12 04:03:01;;;;;;;;;;;;;;;12.31;47.73;98446.16;4797259;29;20397;-78
2022/05/12 04:05:27;;;;;;;;;;;;;;;12.40;47.63;98448.47;4772354;29;20359;-79
2022/05/12 04:07:54;;;;;;;;;;;;;;;12.51;47.59;98446.41;4799490;29;19917;-79
2022/05/12 04:10:20;;;;;;;;;;;;;;;12.59;47.43;98439.19;4772363;30;19925;-77
2022/05/12 04:12:45;;;;;;;;;;;;;;;12.69;47.50;98440.63;4800705;29;20305;-78
2022/05/12 04:15:11;;;;;;;;;;;;;;;12.83;47.51;98449.69;4777763;29;20374;-78
2022/05/12 04:17:36;;;;;;;;;;;;;;;12.96;47.22;98458.81;4800642;29;19974;-79
2022/05/12 04:20:06;;;;;;;;;;;;;;;13.05;46.78;98449.84;4794738;29;19921;-78
2022/05/12 04:22:32;;;;;;;;;;;;;;;13.14;46.16;98447.78;4792991;29;19921;-78
2022/05/12 04:25:05;;;;;;;;;;;;;;;13.25;45.94;98463.09;4804473;29;19925;-78
2022/05/12 04:27:33;;;;;;;;;;;;;;;13.28;45.89;98462.13;4795727;29;19921;-78
2022/05/12 04:29:59;;;;;;;;;;;;;;;13.30;46.11;98447.31;4799206;29;20008;-78
2022/05/12 04:32:25;;;;;;;;;;;;;;;13.31;46.23;98433.38;4780753;29;20440;-77
2022/05/12 04:37:34;;;;;;;;;;;;;;;13.42;46.75;98439.94;4797626;29;19979;-79
2022/05/12 04:40:04;;;;;;;;;;;;;;;13.39;46.80;98432.22;4791212;29;19948;-77
2022/05/12 04:42:29;;;;;;;;;;;;;;;13.39;47.22;98434.81;4793561;29;19961;-77
2022/05/12 04:44:55;;;;;;;;;;;;;;;13.44;47.23;98440.72;4798969;29;20376;-79
2022/05/12 04:47:21;;;;;;;;;;;;;;;13.48;47.13;98436.25;4794894;29;20407;-79
2022/05/12 04:49:46;;;;;;;;;;;;;;;13.49;46.57;98427.53;4803049;29;19916;-80
2022/05/12 04:52:12;;;;;;;;;;;;;;;13.47;46.73;98429.34;4792766;29;19954;-78
2022/05/12 04:54:38;;;;;;;;;;;;;;;13.44;46.52;98430.28;4794939;29;19928;-78
2022/05/12 04:57:04;;;;;;;;;;;;;;;13.45;46.92;98420.72;4800169;29;20016;-79
2022/05/12 04:59:29;;;;;;;;;;;;;;;13.47;46.64;98408.50;4796515;29;19968;-77
2022/05/12 05:01:55;;;;;;;;;;;;;;;13.50;47.09;98410.97;4803943;29;20412;-78
2022/05/12 05:04:20;;;;;;;;;;;;;;;13.61;46.32;98419.28;4795117;29;20293;-79
2022/05/12 05:06:46;;;;;;;;;;;;;;;13.70;45.72;98416.34;4786660;29;19925;-79
2022/05/12 05:09:11;;;;;;;;;;;;;;;13.69;46.29;98414.63;4786914;29;20010;-78
2022/05/12 05:11:38;;;;;;;;;;;;;;;13.69;46.53;98419.81;4787935;29;19921;-79
2022/05/12 05:14:03;;;;;;;;;;;;;;;13.73;46.85;98415.34;4756911;30;20291;-78
2022/05/12 05:16:29;;;;;;;;;;;;;;;13.82;46.91;98409.81;4796024;29;19928;-79
2022/05/12 05:18:54;;;;;;;;;;;;;;;13.94;46.66;98413.72;4793306;29;19937;-78
2022/05/12 05:21:20;;;;;;;;;;;;;;;14.03;46.79;98407.31;4797722;29;19946;-79
2022/05/12 05:23:47;;;;;;;;;;;;;;;14.17;46.60;98405.88;4757706;30;19922;-78
2022/05/12 05:26:12;;;;;;;;;;;;;;;14.36;46.35;98413.81;4771408;30;20016;-79
2022/05/12 05:28:38;;;;;;;;;;;;;;;14.53;46.03;98413.19;4788074;29;19953;-78
2022/05/12 05:31:04;;;;;;;;;;;;;;;14.68;45.33;98417.78;4773531;29;19921;-78
2022/05/12 05:33:29;;;;;;;;;;;;;;;14.80;44.71;98411.22;4797629;29;19970;-78
2022/05/12 05:35:57;;;;;;;;;;;;;;;14.88;44.67;98406.53;4783864;29;20377;-78
2022/05/12 05:38:22;;;;;;;;;;;;;;;14.97;44.88;98418.34;4800168;29;20298;-78
2022/05/12 05:40:48;;;;;;;;;;;;;;;15.04;44.83;98414.59;4798273;29;19921;-79
2022/05/12 05:43:13;;;;;;;;;;;;;;;15.15;43.98;98409.72;4792033;29;19924;-79
2022/05/12 05:45:39;;;;;;;;;;;;;;;15.21;44.43;98400.78;4795951;29;19967;-78
2022/05/12 05:48:05;;;;;;;;;;;;;;;15.24;44.74;98401.50;4798632;29;20250;-79
2022/05/12 05:53:23;;;;;;;;;;;;;;;15.32;43.95;98413.41;4793282;29;19921;-79
2022/05/12 05:53:26;;;;;;;;;;;;;;;15.37;44.83;98390.53;4789628;29;19925;-78
2022/05/12 05:55:53;;;;;;;;;;;;;;;15.41;44.21;98415.63;4799960;29;19956;-78
2022/05/12 05:58:19;;;;;;;;;;;;;;;15.45;44.34;98414.56;4792976;29;20423;-78
2022/05/12 06:00:45;;;;;;;;;;;;;;;15.46;43.11;98405.81;4776386;30;20313;-79
2022/05/12 06:03:10;;;;;;;;;;;;;;;15.44;43.55;98397.16;4783813;30;20009;-78
2022/05/12 06:05:36;;;;;;;;;;;;;;;15.41;44.80;98376.41;4803236;29;19930;-78
2022/05/12 06:08:03;;;;;;;;;;;;;;;15.49;44.37;98376.94;4792097;29;20479;-79
2022/05/12 06:10:28;;;;;;;;;;;;;;;15.55;44.38;98379.25;4790471;29;19921;-78
2022/05/12 06:12:54;;;;;;;;;;;;;;;15.67;44.08;98377.91;4789184;29;19941;-81
2022/05/12 06:15:20;;;;;;;;;;;;;;;15.79;44.05;98379.09;4789454;29;19921;-79
2022/05/12 06:17:45;;;;;;;;;;;;;;;15.88;44.39;98373.44;4790311;29;19917;-78
2022/05/12 06:20:11;;;;;;;;;;;;;;;16.03;43.51;98367.50;4790703;29;19929;-79
2022/05/12 06:22:36;;;;;;;;;;;;;;;16.23;43.80;98359.56;4789135;30;19923;-77
2022/05/12 06:25:05;;;;;;;;;;;;;;;16.43;43.90;98360.38;4781694;29;19925;-79
2022/05/12 06:27:30;;;;;;;;;;;;;;;16.63;43.74;98380.34;4805135;29;19923;-78
2022/05/12 06:29:56;;;;;;;;;;;;;;;16.79;43.63;98359.53;4808363;29;19920;-77
2022/05/12 06:32:21;;;;;;;;;;;;;;;16.95;42.98;98355.19;4806945;29;19947;-78
2022/05/12 06:34:47;;;;;;;;;;;;;;;17.20;43.16;98350.41;4807137;29;19920;-77
2022/05/12 06:37:13;;;;;;;;;;;;;;;17.36;43.23;98354.81;4780005;30;19924;-77
2022/05/12 06:39:38;;;;;;;;;;;;;;;17.43;42.87;98357.06;4790715;29;19922;-78
2022/05/12 06:42:04;;;;;;;;;;;;;;;17.54;42.66;98365.19;4789141;29;20386;-83
2022/05/12 06:44:42;;;;;;;;;;;;;;;17.60;42.89;98348.31;4777624;29;20048;-82
2022/05/12 06:47:12;;;;;;;;;;;;;;;17.63;42.31;98356.00;4789617;29;19925;-79
2022/05/12 06:49:37;;;;;;;;;;;;;;;17.66;43.20;98345.34;4803224;29;19917;-78
2022/05/12 06:52:05;;;;;;;;;;;;;;;17.69;42.88;98337.31;4788492;29;20016;-78
2022/05/12 06:54:31;;;;;;;;;;;;;;;17.84;42.54;98335.66;4788781;29;20420;-77
2022/05/12 06:56:56;;;;;;;;;;;;;;;18.07;42.16;98325.69;4802086;29;19922;-78
2022/05/12 06:59:22;;;;;;;;;;;;;;;18.35;41.80;98322.34;4799501;29;19917;-79
2022/05/12 07:01:48;;;;;;;;;;;;;;;18.64;41.31;98318.03;4803710;29;20400;-78
2022/05/12 07:04:15;;;;;;;;;;;;;;;18.84;41.35;98306.41;4797834;29;20058;-80
2022/05/12 07:06:40;;;;;;;;;;;;;;;18.95;41.41;98310.06;4792584;29;19925;-79
2022/05/12 07:09:06;;;;;;;;;;;;;;;19.25;41.36;98307.38;4801616;29;20382;-78
2022/05/12 07:11:31;;;;;;;;;;;;;;;19.58;40.31;98305.41;4800978;29;20020;-79
2022/05/12 07:13:57;;;;;;;;;;;;;;;19.86;40.04;98301.91;4795290;29;19923;-79
2022/05/12 07:16:22;;;;;;;;;;;;;;;19.99;39.24;98302.81;4798671;29;19921;-79
2022/05/12 07:18:49;;;;;;;;;;;;;;;19.89;38.99;98296.47;4801329;29;20297;-78
2022/05/12 07:26:44;;;;;;;;;;;;;;;19.51;39.35;98297.03;4783024;29;20305;-79
2022/05/12 07:29:13;;;;;;;;;;;;;;;19.44;39.18;98295.72;4791996;29;19963;-79
2022/05/12 07:31:39;;;;;;;;;;;;;;;19.40;39.02;98302.13;4798053;29;20416;-79
2022/05/12 07:34:04;;;;;;;;;;;;;;;19.33;38.19;98285.00;4801091;29;20015;-78
2022/05/12 07:36:32;;;;;;;;;;;;;;;19.38;38.01;98285.56;4773730;30;19928;-78
2022/05/12 07:38:57;;;;;;;;;;;;;;;19.48;38.29;98291.97;4773573;29;19917;-79
2022/05/12 07:41:23;;;;;;;;;;;;;;;19.46;37.97;98285.94;4788601;29;19928;-79
2022/05/12 07:43:49;;;;;;;;;;;;;;;19.42;37.76;98289.72;4795471;29;20023;-78
2022/05/12 07:46:15;;;;;;;;;;;;;;;19.47;37.59;98279.75;4788098;29;19932;-78
2022/05/12 07:48:41;;;;;;;;;;;;;;;19.47;36.90;98287.63;4800701;29;19918;-78
2022/05/12 07:51:07;;;;;;;;;;;;;;;19.57;37.22;98278.25;4788619;29;19921;-84
2022/05/12 07:53:32;;;;;;;;;;;;;;;19.63;37.46;98280.53;4800236;29;19936;-80
2022/05/12 07:55:58;;;;;;;;;;;;;;;19.71;37.12;98286.16;4790473;29;19921;-79
2022/05/12 07:58:24;;;;;;;;;;;;;;;19.77;36.81;98274.38;4788882;29;19926;-78
2022/05/12 08:00:49;;;;;;;;;;;;;;;19.85;36.55;98300.22;4793764;29;19944;-78
2022/05/12 08:03:14;;;;;;;;;;;;;;;19.79;36.44;98265.47;4794602;29;19918;-79
2022/05/12 08:05:40;;;;;;;;;;;;;;;19.86;36.39;98283.47;4787683;29;19936;-78
2022/05/12 08:08:06;;;;;;;;;;;;;;;19.87;36.74;98264.09;4788846;29;19947;-79
2022/05/12 08:10:32;;;;;;;;;;;;;;;19.91;36.45;98278.75;4787507;29;19921;-79
2022/05/12 08:12:58;;;;;;;;;;;;;;;19.87;36.58;98287.78;4788055;29;20457;-78
2022/05/12 08:15:25;;;;;;;;;;;;;;;19.80;36.61;98290.81;4789434;29;20090;-79
2022/05/12 08:17:51;;;;;;;;;;;;;;;19.73;36.74;98294.78;4787561;29;19918;-79
2022/05/12 08:20:17;;;;;;;;;;;;;;;19.63;36.56;98291.03;4789150;29;19928;-77
2022/05/12 08:22:42;;;;;;;;;;;;;;;19.53;37.03;98290.75;4789440;29;19918;-82
2022/05/12 08:25:08;;;;;;;;;;;;;;;19.50;37.32;98288.28;4787780;29;20019;-77
2022/05/12 08:27:34;;;;;;;;;;;;;;;19.37;37.43;98289.16;4788025;29;20018;-79
2022/05/12 08:30:07;;;;;;;;;;;;;;;19.28;37.72;98301.91;4778146;29;20335;-79
2022/05/12 08:32:33;;;;;;;;;;;;;;;19.22;38.08;98286.53;4789182;29;20453;-78
2022/05/12 08:34:59;;;;;;;;;;;;;;;19.22;37.98;98281.28;4787983;29;20012;-80
2022/05/12 08:37:24;;;;;;;;;;;;;;;19.25;38.36;98275.00;4787915;29;19925;-78
2022/05/12 08:39:49;;;;;;;;;;;;;;;19.34;38.08;98273.59;4787382;29;19974;-80
2022/05/12 08:42:21;;;;;;;;;;;;;;;19.58;37.56;98279.94;4796091;29;19920;-78
2022/05/12 08:44:47;;;;;;;;;;;;;;;19.60;38.11;98280.69;4791045;29;19930;-79
2022/05/12 08:47:14;;;;;;;;;;;;;;;19.61;37.78;98292.06;4804217;29;19917;-79
2022/05/12 08:49:44;;;;;;;;;;;;;;;19.61;37.87;98276.28;4794607;29;20378;-78
2022/05/12 08:52:28;;;;;;;;;;;;;;;19.60;38.38;98280.69;4800644;29;20397;-79
2022/05/12 08:55:00;;;;;;;;;;;;;;;19.59;38.63;98268.47;4799575;29;19964;-78
2022/05/12 08:57:30;;;;;;;;;;;;;;;19.53;38.16;98271.50;4793651;29;19937;-79
2022/05/12 08:59:56;;;;;;;;;;;;;;;19.41;38.44;98275.72;4795088;29;19921;-80
2022/05/12 09:02:33;;;;;;;;;;;;;;;19.26;38.82;98261.75;4788013;29;19972;-78
2022/05/12 09:04:58;;;;;;;;;;;;;;;19.21;38.76;98260.34;4781322;29;19929;-79
2022/05/12 09:07:27;;;;;;;;;;;;;;;19.18;39.14;98256.09;4777251;29;19921;-78
2022/05/12 09:10:02;;;;;;;;;;;;;;;19.13;39.33;98260.81;4797752;29;20495;-79
2022/05/12 09:12:32;;;;;;;;;;;;;;;19.14;39.74;98256.38;4799118;29;20305;-79
2022/05/12 09:15:00;;;;;;;;;;;;;;;19.14;39.56;98257.22;4792727;29;19969;-78
2022/05/12 09:17:29;;;;;;;;;;;;;;;19.20;39.24;98256.88;4792585;29;19925;-79
2022/05/12 09:19:55;;;;;;;;;;;;;;;19.21;39.30;98261.19;4800486;29;20393;-80
2022/05/12 09:22:23;;;;;;;;;;;;;;;19.23;39.91;98250.56;4795363;29;19932;-79
2022/05/12 09:24:48;;;;;;;;;;;;;;;19.25;39.91;98246.91;4788139;29;19940;-79
2022/05/12 09:27:14;;;;;;;;;;;;;;;19.40;39.30;98257.41;4786681;29;20305;-78
2022/05/12 09:29:46;;;;;;;;;;;;;;;19.45;38.78;98250.06;4785778;29;19929;-79
2022/05/12 09:32:13;;;;;;;;;;;;;;;19.40;39.44;98241.63;4784037;29;19929;-80
2022/05/12 09:34:46;;;;;;;;;;;;;;;19.38;39.90;98235.59;4788127;29;19925;-78
2022/05/12 09:37:25;;;;;;;;;;;;;;;19.36;39.57;98235.72;4787094;29;19977;-79
2022/05/12 09:39:51;;;;;;;;;;;;;;;19.35;39.70;98233.19;4796680;29;19928;-79
2022/05/12 09:42:28;;;;;;;;;;;;;;;19.33;39.30;98220.13;4799983;29;19965;-78
2022/05/12 09:45:03;;;;;;;;;;;;;;;19.38;39.36;98218.06;4795251;29;20032;-79
2022/05/12 09:47:28;;;;;;;;;;;;;;;19.41;39.62;98217.03;4791325;29;19922;-81
2022/05/12 09:50:16;;;;;;;;;;;;;;;19.46;39.74;98217.56;4787623;29;19921;-78
2022/05/12 09:52:46;;;;;;;;;;;;;;;19.55;39.33;98207.31;4786054;29;19925;-79
2022/05/12 09:55:16;;;;;;;;;;;;;;;19.67;39.07;98203.09;4797445;29;19921;-81
2022/05/12 09:57:46;;;;;;;;;;;;;;;19.80;38.91;98198.72;4774035;29;19921;-84
2022/05/12 10:00:22;;;;;;;;;;;;;;;19.93;39.14;98192.66;4787151;29;20421;-78
2022/05/12 10:08:22;;;;;;;;;;;;;;;20.12;38.72;98200.19;4794491;29;20404;-81
2022/05/12 10:10:48;;;;;;;;;;;;;;;20.18;38.57;98182.19;4791337;29;20308;-80
2022/05/12 10:13:22;;;;;;;;;;;;;;;20.31;38.11;98172.53;4771698;30;19921;-79
2022/05/12 10:15:48;;;;;;;;;;;;;;;20.62;38.47;98166.97;4762145;30;19922;-79
2022/05/12 10:18:17;;;;;;;;;;;;;;;20.94;37.97;98170.03;4791532;29;19921;-78
2022/05/12 10:20:44;;;;;;;;;;;;;;;21.13;37.23;98178.34;4793380;29;19956;-79
2022/05/12 10:23:28;;;;;;;;;;;;;;;21.20;36.50;98171.66;4784682;29;19967;-78
2022/05/12 10:26:00;;;;;;;;;;;;;;;21.13;36.86;98170.41;4797655;29;19925;-79
2022/05/12 10:28:45;;;;;;;;;;;;;;;21.00;36.82;98165.16;4792277;29;19950;-78
2022/05/12 10:31:14;;;;;;;;;;;;;;;20.91;37.00;98170.25;4804039;29;19963;-83
2022/05/12 10:34:00;;;;;;;;;;;;;;;20.75;37.18;98163.38;4792708;29;19917;-79
2022/05/12 10:36:44;;;;;;;;;;;;;;;20.70;36.99;98172.56;4791750;29;20305;-78
2022/05/12 10:39:19;;;;;;;;;;;;;;;20.52;37.10;98191.31;4786743;29;20297;-80
2022/05/12 10:42:04;;;;;;;;;;;;;;;20.40;37.30;98176.34;4790888;29;19983;-82
2022/05/12 10:44:37;;;;;;;;;;;;;;;20.28;37.40;98167.47;4790768;29;20390;-79
2022/05/12 10:47:05;;;;;;;;;;;;;;;20.19;37.65;98160.19;4802134;29;19921;-81
2022/05/12 10:49:34;;;;;;;;;;;;;;;20.11;37.93;98170.38;4775009;30;19925;-77
2022/05/12 10:52:06;;;;;;;;;;;;;;;20.06;37.84;98154.03;4801951;29;19970;-79
2022/05/12 10:54:34;;;;;;;;;;;;;;;20.03;37.93;98147.22;4800406;29;20020;-79
2022/05/12 10:57:10;;;;;;;;;;;;;;;19.99;37.76;98134.34;4791997;29;19918;-81
2022/05/12 10:59:37;;;;;;;;;;;;;;;19.93;37.72;98118.94;4781082;30;19932;-80
2022/05/12 11:02:11;;;;;;;;;;;;;;;19.86;37.94;98118.53;4802145;29;19934;-83
2022/05/12 11:04:44;;;;;;;;;;;;;;;19.82;37.94;98116.22;4790921;29;20421;-79
2022/05/12 11:07:19;;;;;;;;;;;;;;;19.74;38.10;98098.28;4759974;29;20024;-80
2022/05/12 11:10:20;;;;;;;;;;;;;;;19.75;37.77;98103.47;4774232;30;19925;-80
2022/05/12 11:12:47;;;;;;;;;;;;;;;19.71;38.18;98104.59;4824489;29;19928;-80
2022/05/12 11:15:16;;;;;;;;;;;;;;;19.69;37.96;98095.97;4792695;29;19921;-82
2022/05/12 11:17:41;;;;;;;;;;;;;;;19.77;37.98;98085.78;4802823;29;20445;-78
2022/05/12 11:20:07;;;;;;;;;;;;;;;19.85;38.41;98085.28;4790221;29;20009;-80
2022/05/12 11:22:43;;;;;;;;;;;;;;;20.00;37.95;98081.59;4801966;29;19944;-78
2022/05/12 11:25:27;;;;;;;;;;;;;;;20.23;37.75;98080.03;4773323;30;19930;-79
2022/05/12 11:29:41;;;;;;;;;;;;;;;20.46;37.77;98085.50;4802161;29;19921;-79
2022/05/12 11:30:50;;;;;;;;;;;;;;;20.61;37.24;98063.38;4791311;29;19921;-80
2022/05/12 11:33:47;;;;;;;;;;;;;;;20.66;37.09;98074.44;4788786;30;20301;-80
2022/05/12 11:36:13;;;;;;;;;;;;;;;20.64;37.61;98064.97;4799644;29;19970;-83
2022/05/12 11:38:42;;;;;;;;;;;;;;;20.66;37.54;98073.59;4773641;30;19917;-83
2022/05/12 11:41:08;;;;;;;;;;;;;;;20.89;37.54;98058.78;4801234;29;19921;-81
2022/05/12 11:46:23;;;;;;;;;;;;;;;21.16;36.98;98050.69;4800864;29;19921;-78
2022/05/12 11:48:52;;;;;;;;;;;;;;;21.04;37.03;98048.00;4802335;29;19925;-79
2022/05/12 11:51:30;;;;;;;;;;;;;;;20.92;37.10;98045.41;4798847;29;20309;-82
2022/05/12 11:53:57;;;;;;;;;;;;;;;20.80;37.60;98031.28;4789566;29;19929;-78
2022/05/12 11:56:33;;;;;;;;;;;;;;;20.76;37.64;98025.44;4798457;29;19921;-83
2022/05/12 11:59:33;;;;;;;;;;;;;;;20.79;37.58;98024.34;4759992;30;19922;-78
2022/05/12 12:02:23;;;;;;;;;;;;;;;20.84;37.47;98018.75;4789224;29;20012;-79
2022/05/12 12:04:51;;;;;;;;;;;;;;;20.91;37.49;98014.72;4797892;29;19968;-79
2022/05/12 12:07:19;;;;;;;;;;;;;;;21.09;37.47;98008.13;4800916;29;19921;-80
2022/05/12 12:09:46;;;;;;;;;;;;;;;21.20;37.20;97994.13;4796067;29;19921;-77
2022/05/12 12:12:13;;;;;;;;;;;;;;;21.42;37.02;97996.06;4793607;29;19922;-78
2022/05/12 12:14:42;;;;;;;;;;;;;;;21.55;36.81;97981.81;4787636;30;20312;-80
2022/05/12 12:17:11;;;;;;;;;;;;;;;21.55;36.58;97980.97;4799915;29;19969;-79
2022/05/12 12:19:46;;;;;;;;;;;;;;;21.52;36.74;97971.50;4773482;30;20009;-79
2022/05/12 12:22:24;;;;;;;;;;;;;;;21.48;36.71;97963.91;4787617;29;19921;-78
2022/05/12 12:24:55;;;;;;;;;;;;;;;21.37;36.64;97956.00;4793599;29;19932;-80
2022/05/12 12:27:30;;;;;;;;;;;;;;;21.21;36.84;97951.84;4793831;29;20374;-79
2022/05/12 12:30:15;;;;;;;;;;;;;;;21.16;36.99;97953.97;4794639;29;20313;-79
2022/05/12 12:32:41;;;;;;;;;;;;;;;21.11;37.04;97944.72;4777677;29;20001;-80
2022/05/12 12:35:09;;;;;;;;;;;;;;;21.02;37.20;97935.69;4788985;29;20008;-79
2022/05/12 12:37:38;;;;;;;;;;;;;;;21.04;37.49;97932.00;4787564;29;19925;-77
2022/05/12 12:40:23;;;;;;;;;;;;;;;21.07;37.26;97928.28;4772454;30;20381;-77
2022/05/12 12:42:49;;;;;;;;;;;;;;;21.08;37.63;97932.63;4787956;29;19928;-80
2022/05/12 12:45:16;;;;;;;;;;;;;;;21.11;37.55;97919.19;4772529;30;20012;-79
2022/05/12 12:47:43;;;;;;;;;;;;;;;21.15;37.44;97896.91;4787415;29;19928;-78
2022/05/12 12:50:28;;;;;;;;;;;;;;;21.28;37.59;97904.75;4772332;30;19917;-78
2022/05/12 12:52:56;;;;;;;;;;;;;;;21.52;37.17;97888.88;4801855;29;19925;-78
2022/05/12 12:58:06;;;;;;;;;;;;;;;21.59;37.15;97881.34;4800034;29;20011;-80
2022/05/12 13:00:33;;;;;;;;;;;;;;;21.56;37.37;97879.75;4790327;29;19963;-80
2022/05/12 13:03:03;;;;;;;;;;;;;;;21.54;37.50;97889.59;4795216;29;20381;-79
2022/05/12 13:05:29;;;;;;;;;;;;;;;21.57;37.80;97870.88;4799956;29;19930;-83
2022/05/12 13:08:01;;;;;;;;;;;;;;;21.51;38.11;97874.84;4796167;29;19921;-80
2022/05/12 13:10:27;;;;;;;;;;;;;;;21.43;38.15;97860.56;4804456;29;19921;-80
2022/05/12 13:13:05;;;;;;;;;;;;;;;21.42;38.44;97869.44;4800725;29;19957;-79
2022/05/12 13:15:34;;;;;;;;;;;;;;;21.37;38.65;97866.31;4798518;29;20377;-80